VIA003 SVMI-SVCP
Flight info
| Callsign | VIA003 |
|---|---|
| Flight time | 0h 47m |
| Altitude | 23000 |
| Route | OSMAR2 OSMAR W20 CBC UW52 ESNAP |
| Aircraft | A20N/M-SDE2E3FGHIJ1RWXY/LB1 |
Departure
| Time | 2026-05-06 19:57 |
|---|---|
| Airport | Maiquetía Simón Bolívar International Airport (SVMI) |
Arrival
| Time | 2026-05-06 20:44 |
|---|---|
| Airport | General Francisco Bermúdez Airport (SVCP) |
| Time | Latitude | Longitude | Altitude | Speed | Heading |
|---|---|---|---|---|---|
| 2026-05-06 19:51 | 10.60071 | -66.99982 | 320 ft | 0 kts | 180° |
| 2026-05-06 19:53 | 10.60061 | -66.99982 | 320 ft | 5 kts | 180° |
| 2026-05-06 19:54 | 10.60033 | -66.99959 | 321 ft | 6 kts | 102° |
| 2026-05-06 19:54 | 10.60064 | -66.99921 | 319 ft | 9 kts | 2° |
| 2026-05-06 19:54 | 10.60125 | -66.99892 | 317 ft | 12 kts | 78° |
| 2026-05-06 19:54 | 10.60139 | -66.99797 | 314 ft | 14 kts | 85° |
| 2026-05-06 19:55 | 10.60122 | -66.99686 | 310 ft | 15 kts | 136° |
| 2026-05-06 19:55 | 10.60023 | -66.99674 | 313 ft | 12 kts | 169° |
| 2026-05-06 19:55 | 10.59946 | -66.99661 | 316 ft | 9 kts | 172° |
| 2026-05-06 19:55 | 10.59907 | -66.99647 | 316 ft | 6 kts | 107° |
| 2026-05-06 19:56 | 10.59919 | -66.99573 | 314 ft | 26 kts | 76° |
| 2026-05-06 19:56 | 10.60040 | -66.99087 | 286 ft | 111 kts | 76° |
| 2026-05-06 19:56 | 10.60282 | -66.98095 | 315 ft | 168 kts | 76° |
| 2026-05-06 19:56 | 10.60625 | -66.96863 | 723 ft | 187 kts | 75° |
| 2026-05-06 19:57 | 10.61156 | -66.95715 | 1660 ft | 183 kts | 48° |
| 2026-05-06 19:57 | 10.62158 | -66.95013 | 2607 ft | 172 kts | 35° |
| 2026-05-06 19:57 | 10.62959 | -66.94210 | 3284 ft | 157 kts | 71° |
| 2026-05-06 19:57 | 10.63184 | -66.93142 | 3767 ft | 160 kts | 84° |
| 2026-05-06 19:58 | 10.63332 | -66.91962 | 4110 ft | 176 kts | 83° |
| 2026-05-06 19:58 | 10.63552 | -66.90684 | 4461 ft | 193 kts | 80° |
| 2026-05-06 19:58 | 10.63854 | -66.89294 | 4829 ft | 210 kts | 78° |
| 2026-05-06 19:58 | 10.64225 | -66.87787 | 5226 ft | 226 kts | 77° |
| 2026-05-06 19:59 | 10.64652 | -66.86166 | 5575 ft | 247 kts | 76° |
| 2026-05-06 19:59 | 10.65119 | -66.84464 | 6306 ft | 250 kts | 76° |
| 2026-05-06 19:59 | 10.65589 | -66.82779 | 7043 ft | 252 kts | 76° |
| 2026-05-06 19:59 | 10.66073 | -66.81062 | 7790 ft | 253 kts | 76° |
| 2026-05-06 20:00 | 10.66555 | -66.79353 | 8524 ft | 255 kts | 76° |
| 2026-05-06 20:00 | 10.67044 | -66.77621 | 9259 ft | 258 kts | 76° |
| 2026-05-06 20:00 | 10.67542 | -66.75857 | 9975 ft | 260 kts | 76° |
| 2026-05-06 20:00 | 10.68037 | -66.74099 | 10672 ft | 261 kts | 76° |
| 2026-05-06 20:01 | 10.68537 | -66.72325 | 11353 ft | 261 kts | 75° |
| 2026-05-06 20:01 | 10.69034 | -66.70563 | 12024 ft | 262 kts | 75° |
| 2026-05-06 20:01 | 10.69542 | -66.68765 | 12646 ft | 263 kts | 75° |
| 2026-05-06 20:01 | 10.70043 | -66.66990 | 13251 ft | 264 kts | 74° |
| 2026-05-06 20:02 | 10.70564 | -66.65149 | 13627 ft | 276 kts | 74° |
| 2026-05-06 20:02 | 10.71107 | -66.63232 | 13941 ft | 291 kts | 74° |
| 2026-05-06 20:02 | 10.71679 | -66.61214 | 14248 ft | 306 kts | 73° |
| 2026-05-06 20:02 | 10.72289 | -66.59056 | 14516 ft | 321 kts | 74° |
| 2026-05-06 20:03 | 10.72691 | -66.56770 | 14735 ft | 337 kts | 85° |
| 2026-05-06 20:03 | 10.72555 | -66.54341 | 14985 ft | 353 kts | 98° |
| 2026-05-06 20:03 | 10.71899 | -66.51849 | 15287 ft | 367 kts | 104° |
| 2026-05-06 20:03 | 10.71126 | -66.49357 | 15777 ft | 373 kts | 105° |
| 2026-05-06 20:04 | 10.70338 | -66.46848 | 16319 ft | 377 kts | 105° |
| 2026-05-06 20:04 | 10.69535 | -66.44285 | 16838 ft | 381 kts | 104° |
| 2026-05-06 20:04 | 10.68737 | -66.41723 | 17364 ft | 385 kts | 104° |
| 2026-05-06 20:04 | 10.67930 | -66.39123 | 17861 ft | 389 kts | 104° |
| 2026-05-06 20:05 | 10.67111 | -66.36468 | 18315 ft | 394 kts | 104° |
| 2026-05-06 20:05 | 10.66287 | -66.33799 | 18733 ft | 398 kts | 105° |
| 2026-05-06 20:05 | 10.65447 | -66.31084 | 19191 ft | 403 kts | 105° |
| 2026-05-06 20:05 | 10.64593 | -66.28323 | 19616 ft | 407 kts | 105° |
| 2026-05-06 20:06 | 10.63746 | -66.25584 | 20021 ft | 411 kts | 105° |
| 2026-05-06 20:06 | 10.62885 | -66.22804 | 20412 ft | 415 kts | 106° |
| 2026-05-06 20:06 | 10.62016 | -66.20001 | 20801 ft | 419 kts | 106° |
| 2026-05-06 20:06 | 10.61129 | -66.17142 | 21190 ft | 423 kts | 106° |
| 2026-05-06 20:07 | 10.60239 | -66.14274 | 21577 ft | 426 kts | 106° |
| 2026-05-06 20:07 | 10.59346 | -66.11395 | 21948 ft | 430 kts | 107° |
| 2026-05-06 20:07 | 10.58454 | -66.08471 | 22326 ft | 433 kts | 105° |
| 2026-05-06 20:07 | 10.57780 | -66.05508 | 22712 ft | 435 kts | 99° |
| 2026-05-06 20:08 | 10.57391 | -66.02441 | 22909 ft | 437 kts | 94° |
| 2026-05-06 20:08 | 10.57281 | -65.99342 | 22914 ft | 436 kts | 90° |
| 2026-05-06 20:08 | 10.57267 | -65.97839 | 22908 ft | 436 kts | 89° |
| 2026-05-06 20:08 | 10.57253 | -65.94746 | 22909 ft | 432 kts | 89° |
| 2026-05-06 20:09 | 10.57246 | -65.91710 | 22907 ft | 431 kts | 89° |
| 2026-05-06 20:09 | 10.57236 | -65.88649 | 22906 ft | 431 kts | 89° |
| 2026-05-06 20:09 | 10.57222 | -65.85630 | 22908 ft | 431 kts | 89° |
| 2026-05-06 20:09 | 10.57204 | -65.82554 | 22906 ft | 432 kts | 89° |
| 2026-05-06 20:10 | 10.57184 | -65.79524 | 22901 ft | 433 kts | 89° |
| 2026-05-06 20:10 | 10.57162 | -65.76456 | 22898 ft | 434 kts | 89° |
| 2026-05-06 20:10 | 10.57140 | -65.73351 | 22897 ft | 436 kts | 90° |
| 2026-05-06 20:10 | 10.57115 | -65.70262 | 22899 ft | 436 kts | 90° |
| 2026-05-06 20:11 | 10.57089 | -65.67179 | 22902 ft | 436 kts | 90° |
| 2026-05-06 20:11 | 10.57063 | -65.64106 | 22903 ft | 436 kts | 90° |
| 2026-05-06 20:11 | 10.57037 | -65.61002 | 22904 ft | 436 kts | 90° |
| 2026-05-06 20:11 | 10.57010 | -65.57937 | 22902 ft | 435 kts | 90° |
| 2026-05-06 20:12 | 10.56984 | -65.54826 | 22901 ft | 436 kts | 90° |
| 2026-05-06 20:12 | 10.56958 | -65.51771 | 22900 ft | 435 kts | 90° |
| 2026-05-06 20:12 | 10.56930 | -65.48677 | 22901 ft | 435 kts | 90° |
| 2026-05-06 20:12 | 10.56903 | -65.45599 | 22898 ft | 435 kts | 90° |
| 2026-05-06 20:13 | 10.56875 | -65.42524 | 22897 ft | 436 kts | 90° |
| 2026-05-06 20:13 | 10.56848 | -65.39421 | 22898 ft | 436 kts | 90° |
| 2026-05-06 20:13 | 10.56819 | -65.36345 | 22901 ft | 436 kts | 90° |
| 2026-05-06 20:13 | 10.56791 | -65.33236 | 22905 ft | 436 kts | 90° |
| 2026-05-06 20:14 | 10.56762 | -65.30175 | 22905 ft | 436 kts | 90° |
| 2026-05-06 20:14 | 10.56733 | -65.27068 | 22901 ft | 436 kts | 90° |
| 2026-05-06 20:14 | 10.56702 | -65.23981 | 22903 ft | 436 kts | 90° |
| 2026-05-06 20:14 | 10.56672 | -65.20903 | 22904 ft | 436 kts | 90° |
| 2026-05-06 20:15 | 10.56643 | -65.17802 | 22902 ft | 436 kts | 90° |
| 2026-05-06 20:15 | 10.56613 | -65.14707 | 22900 ft | 435 kts | 90° |
| 2026-05-06 20:15 | 10.56582 | -65.11626 | 22900 ft | 435 kts | 90° |
| 2026-05-06 20:15 | 10.56551 | -65.08550 | 22898 ft | 435 kts | 90° |
| 2026-05-06 20:16 | 10.56519 | -65.05477 | 22895 ft | 435 kts | 90° |
| 2026-05-06 20:16 | 10.56488 | -65.02411 | 22896 ft | 436 kts | 90° |
| 2026-05-06 20:16 | 10.56456 | -64.99293 | 22896 ft | 436 kts | 90° |
| 2026-05-06 20:16 | 10.56424 | -64.96238 | 22897 ft | 436 kts | 90° |
| 2026-05-06 20:17 | 10.56391 | -64.93142 | 22899 ft | 436 kts | 90° |
| 2026-05-06 20:17 | 10.56358 | -64.90080 | 22902 ft | 436 kts | 90° |
| 2026-05-06 20:17 | 10.56325 | -64.86977 | 22907 ft | 436 kts | 90° |
| 2026-05-06 20:17 | 10.56292 | -64.83906 | 22911 ft | 436 kts | 90° |
| 2026-05-06 20:18 | 10.56257 | -64.80785 | 22911 ft | 435 kts | 90° |
| 2026-05-06 20:18 | 10.56223 | -64.77702 | 22911 ft | 436 kts | 90° |
| 2026-05-06 20:18 | 10.56188 | -64.74612 | 22912 ft | 436 kts | 90° |
| 2026-05-06 20:18 | 10.56153 | -64.71558 | 22915 ft | 435 kts | 90° |
| 2026-05-06 20:19 | 10.56117 | -64.68454 | 22915 ft | 435 kts | 90° |
| 2026-05-06 20:19 | 10.56082 | -64.65419 | 22767 ft | 430 kts | 90° |
| 2026-05-06 20:19 | 10.56099 | -64.62375 | 22273 ft | 426 kts | 87° |
| 2026-05-06 20:19 | 10.56292 | -64.59398 | 21713 ft | 424 kts | 84° |
| 2026-05-06 20:20 | 10.56599 | -64.56415 | 21191 ft | 421 kts | 83° |
| 2026-05-06 20:20 | 10.56916 | -64.53477 | 20689 ft | 417 kts | 83° |
| 2026-05-06 20:20 | 10.57231 | -64.50551 | 20220 ft | 413 kts | 83° |
| 2026-05-06 20:20 | 10.57541 | -64.47645 | 19721 ft | 409 kts | 83° |
| 2026-05-06 20:21 | 10.57845 | -64.44791 | 19223 ft | 405 kts | 83° |
| 2026-05-06 20:21 | 10.58147 | -64.41933 | 18719 ft | 401 kts | 83° |
| 2026-05-06 20:21 | 10.58442 | -64.39137 | 18241 ft | 397 kts | 83° |
| 2026-05-06 20:21 | 10.58736 | -64.36356 | 17737 ft | 393 kts | 83° |
| 2026-05-06 20:22 | 10.59027 | -64.33598 | 17262 ft | 389 kts | 84° |
| 2026-05-06 20:22 | 10.59310 | -64.30893 | 16822 ft | 383 kts | 84° |
| 2026-05-06 20:22 | 10.59590 | -64.28226 | 16357 ft | 378 kts | 84° |
| 2026-05-06 20:22 | 10.59866 | -64.25584 | 15887 ft | 373 kts | 84° |
| 2026-05-06 20:23 | 10.60138 | -64.22977 | 15398 ft | 369 kts | 84° |
| 2026-05-06 20:23 | 10.60407 | -64.20398 | 14914 ft | 366 kts | 83° |
| 2026-05-06 20:23 | 10.60676 | -64.17815 | 14426 ft | 362 kts | 83° |
| 2026-05-06 20:23 | 10.60938 | -64.15301 | 13917 ft | 359 kts | 83° |
| 2026-05-06 20:24 | 10.61198 | -64.12795 | 13413 ft | 354 kts | 83° |
| 2026-05-06 20:24 | 10.61452 | -64.10342 | 12925 ft | 337 kts | 83° |
| 2026-05-06 20:24 | 10.61692 | -64.08048 | 12439 ft | 319 kts | 83° |
| 2026-05-06 20:24 | 10.61921 | -64.05867 | 11943 ft | 304 kts | 83° |
| 2026-05-06 20:25 | 10.62142 | -64.03752 | 11416 ft | 292 kts | 84° |
| 2026-05-06 20:25 | 10.62352 | -64.01742 | 10877 ft | 281 kts | 84° |
| 2026-05-06 20:25 | 10.62555 | -63.99795 | 10346 ft | 273 kts | 84° |
| 2026-05-06 20:25 | 10.62750 | -63.97914 | 9806 ft | 265 kts | 84° |
| 2026-05-06 20:26 | 10.62942 | -63.96062 | 9288 ft | 264 kts | 85° |
| 2026-05-06 20:26 | 10.63264 | -63.94230 | 8773 ft | 265 kts | 72° |
| 2026-05-06 20:26 | 10.63964 | -63.92497 | 8256 ft | 266 kts | 68° |
| 2026-05-06 20:26 | 10.64740 | -63.90786 | 7738 ft | 266 kts | 67° |
| 2026-05-06 20:27 | 10.65520 | -63.89085 | 7212 ft | 266 kts | 67° |
| 2026-05-06 20:27 | 10.66313 | -63.87360 | 6701 ft | 266 kts | 67° |
| 2026-05-06 20:27 | 10.67091 | -63.85668 | 6227 ft | 264 kts | 67° |
| 2026-05-06 20:27 | 10.67866 | -63.83985 | 5772 ft | 262 kts | 67° |
| 2026-05-06 20:28 | 10.68641 | -63.82307 | 5289 ft | 258 kts | 67° |
| 2026-05-06 20:28 | 10.69389 | -63.80687 | 4806 ft | 252 kts | 67° |
| 2026-05-06 20:28 | 10.70130 | -63.79080 | 4344 ft | 246 kts | 67° |
| 2026-05-06 20:28 | 10.70856 | -63.77520 | 3877 ft | 241 kts | 67° |
| 2026-05-06 20:29 | 10.71571 | -63.76004 | 3400 ft | 235 kts | 67° |
| 2026-05-06 20:29 | 10.72271 | -63.74524 | 3019 ft | 226 kts | 67° |
| 2026-05-06 20:29 | 10.72935 | -63.73117 | 2928 ft | 215 kts | 67° |
| 2026-05-06 20:29 | 10.73585 | -63.71735 | 2936 ft | 215 kts | 67° |
| 2026-05-06 20:30 | 10.74228 | -63.70374 | 2766 ft | 212 kts | 67° |
| 2026-05-06 20:30 | 10.75497 | -63.67665 | 2173 ft | 211 kts | 66° |
| 2026-05-06 20:30 | 10.76112 | -63.66324 | 1956 ft | 207 kts | 67° |
| 2026-05-06 20:31 | 10.76656 | -63.64949 | 1937 ft | 210 kts | 75° |
| 2026-05-06 20:31 | 10.76993 | -63.63480 | 1940 ft | 211 kts | 80° |
| 2026-05-06 20:31 | 10.77244 | -63.62023 | 1937 ft | 210 kts | 82° |
| 2026-05-06 20:31 | 10.77375 | -63.60529 | 1935 ft | 210 kts | 89° |
| 2026-05-06 20:32 | 10.77287 | -63.59054 | 1936 ft | 209 kts | 97° |
| 2026-05-06 20:32 | 10.77009 | -63.57587 | 1935 ft | 209 kts | 100° |
| 2026-05-06 20:32 | 10.76688 | -63.56146 | 1931 ft | 210 kts | 101° |
| 2026-05-06 20:32 | 10.76359 | -63.54715 | 1924 ft | 204 kts | 101° |
| 2026-05-06 20:33 | 10.76034 | -63.53310 | 1929 ft | 200 kts | 101° |
| 2026-05-06 20:33 | 10.75704 | -63.51923 | 1936 ft | 200 kts | 103° |
| 2026-05-06 20:33 | 10.75327 | -63.50559 | 1934 ft | 199 kts | 104° |
| 2026-05-06 20:33 | 10.74867 | -63.49247 | 1718 ft | 198 kts | 109° |
| 2026-05-06 20:34 | 10.74339 | -63.47954 | 1468 ft | 197 kts | 110° |
| 2026-05-06 20:34 | 10.73786 | -63.46639 | 1442 ft | 200 kts | 110° |
| 2026-05-06 20:34 | 10.73236 | -63.45333 | 1438 ft | 200 kts | 110° |
| 2026-05-06 20:34 | 10.72686 | -63.44029 | 1433 ft | 201 kts | 110° |
| 2026-05-06 20:35 | 10.72133 | -63.42722 | 1436 ft | 200 kts | 110° |
| 2026-05-06 20:35 | 10.71601 | -63.41469 | 1510 ft | 184 kts | 110° |
| 2026-05-06 20:35 | 10.71117 | -63.40347 | 1435 ft | 162 kts | 110° |
| 2026-05-06 20:35 | 10.70679 | -63.39343 | 1327 ft | 139 kts | 108° |
| 2026-05-06 20:36 | 10.70378 | -63.38451 | 1243 ft | 130 kts | 102° |
| 2026-05-06 20:36 | 10.70146 | -63.37561 | 1152 ft | 129 kts | 100° |
| 2026-05-06 20:36 | 10.69943 | -63.36672 | 1114 ft | 129 kts | 99° |
| 2026-05-06 20:36 | 10.69772 | -63.35777 | 1092 ft | 128 kts | 98° |
| 2026-05-06 20:37 | 10.69543 | -63.34886 | 1069 ft | 129 kts | 102° |
| 2026-05-06 20:37 | 10.69264 | -63.34011 | 1001 ft | 129 kts | 105° |
| 2026-05-06 20:37 | 10.68952 | -63.33145 | 942 ft | 130 kts | 106° |
| 2026-05-06 20:37 | 10.68633 | -63.32285 | 870 ft | 130 kts | 104° |
| 2026-05-06 20:38 | 10.68364 | -63.31407 | 816 ft | 130 kts | 103° |
| 2026-05-06 20:38 | 10.68117 | -63.30536 | 499 ft | 126 kts | 102° |
| 2026-05-06 20:38 | 10.67894 | -63.29694 | 219 ft | 120 kts | 99° |
| 2026-05-06 20:38 | 10.67738 | -63.28844 | 283 ft | 116 kts | 92° |
| 2026-05-06 20:39 | 10.67819 | -63.28099 | 480 ft | 100 kts | 78° |
| 2026-05-06 20:39 | 10.67928 | -63.27405 | 493 ft | 102 kts | 86° |
| 2026-05-06 20:39 | 10.67877 | -63.26601 | 477 ft | 127 kts | 91° |
| 2026-05-06 20:39 | 10.67911 | -63.25597 | 556 ft | 154 kts | 76° |
| 2026-05-06 20:40 | 10.68479 | -63.24612 | 658 ft | 171 kts | 47° |
| 2026-05-06 20:40 | 10.69547 | -63.24083 | 770 ft | 167 kts | 14° |
| 2026-05-06 20:40 | 10.70657 | -63.24321 | 806 ft | 166 kts | 336° |
| 2026-05-06 20:40 | 10.71392 | -63.25189 | 778 ft | 162 kts | 301° |
| 2026-05-06 20:41 | 10.71801 | -63.26223 | 754 ft | 156 kts | 294° |
| 2026-05-06 20:41 | 10.72183 | -63.27320 | 788 ft | 166 kts | 293° |
| 2026-05-06 20:41 | 10.72465 | -63.28471 | 778 ft | 170 kts | 270° |
| 2026-05-06 20:41 | 10.72020 | -63.29554 | 769 ft | 169 kts | 221° |
| 2026-05-06 20:42 | 10.70984 | -63.29999 | 764 ft | 157 kts | 171° |
| 2026-05-06 20:42 | 10.70059 | -63.29563 | 772 ft | 143 kts | 125° |
| 2026-05-06 20:42 | 10.69548 | -63.28715 | 821 ft | 132 kts | 115° |
| 2026-05-06 20:42 | 10.69103 | -63.27934 | 639 ft | 127 kts | 115° |
| 2026-05-06 20:43 | 10.68550 | -63.27152 | 526 ft | 138 kts | 129° |
| 2026-05-06 20:43 | 10.67753 | -63.26584 | 241 ft | 144 kts | 159° |
| 2026-05-06 20:43 | 10.66764 | -63.26334 | 88 ft | 146 kts | 162° |
| 2026-05-06 20:43 | 10.65876 | -63.26122 | 82 ft | 88 kts | 168° |
| 2026-05-06 20:44 | 10.65542 | -63.26060 | 88 ft | 21 kts | 173° |
| 2026-05-06 20:44 | 10.65501 | -63.26043 | 89 ft | 6 kts | 12° |
| 2026-05-06 20:44 | 10.65555 | -63.26054 | 88 ft | 9 kts | 347° |
| 2026-05-06 20:44 | 10.65626 | -63.26067 | 87 ft | 5 kts | 17° |
| 2026-05-06 20:45 | 10.65632 | -63.26064 | 86 ft | 0 kts | 49° |
| 2026-05-06 20:45 | 10.65641 | -63.26049 | 86 ft | 3 kts | 66° |
| 2026-05-06 20:45 | 10.65647 | -63.26017 | 86 ft | 5 kts | 93° |
| 2026-05-06 20:45 | 10.65643 | -63.25993 | 86 ft | 3 kts | 102° |
| 2026-05-06 20:46 | 10.65639 | -63.25973 | 87 ft | 1 kts | 101° |
| 2026-05-06 20:46 | 10.65639 | -63.25972 | 87 ft | 0 kts | 101° |
| 2026-05-06 22:25 | 10.65639 | -63.25973 | 85 ft | 1 kts | 101° |
| 2026-05-06 22:25 | 10.65648 | -63.25999 | 85 ft | 5 kts | 131° |
| 2026-05-06 22:25 | 10.65649 | -63.26004 | 85 ft | 1 kts | 193° |
| 2026-05-06 22:26 | 10.65599 | -63.26050 | 85 ft | 15 kts | 190° |
| 2026-05-06 22:26 | 10.65499 | -63.26047 | 88 ft | 13 kts | 171° |
| 2026-05-06 22:26 | 10.65412 | -63.26031 | 89 ft | 12 kts | 167° |
| 2026-05-06 22:26 | 10.65334 | -63.26012 | 91 ft | 11 kts | 166° |
| 2026-05-06 22:27 | 10.65258 | -63.25996 | 92 ft | 11 kts | 168° |
| 2026-05-06 22:27 | 10.65196 | -63.25983 | 94 ft | 6 kts | 168° |
| 2026-05-06 22:27 | 10.65153 | -63.25973 | 95 ft | 4 kts | 153° |
| 2026-05-06 22:27 | 10.65166 | -63.25967 | 94 ft | 5 kts | 349° |
| 2026-05-06 22:28 | 10.65171 | -63.25968 | 94 ft | 0 kts | 348° |
| 2026-05-06 22:28 | 10.65419 | -63.26025 | 89 ft | 78 kts | 348° |
| 2026-05-06 22:28 | 10.66196 | -63.26199 | 79 ft | 146 kts | 351° |
| 2026-05-06 22:28 | 10.67298 | -63.26399 | 335 ft | 172 kts | 359° |
| 2026-05-06 22:29 | 10.68558 | -63.26407 | 740 ft | 187 kts | 15° |
| 2026-05-06 22:29 | 10.69709 | -63.25856 | 1104 ft | 173 kts | 35° |
| 2026-05-06 22:29 | 10.70838 | -63.25458 | 1623 ft | 178 kts | 11° |
| 2026-05-06 22:29 | 10.72088 | -63.25471 | 2167 ft | 183 kts | 1° |
| 2026-05-06 22:30 | 10.73312 | -63.25903 | 2678 ft | 197 kts | 325° |
| 2026-05-06 22:30 | 10.74118 | -63.27066 | 3247 ft | 206 kts | 293° |
| 2026-05-06 22:30 | 10.74598 | -63.28458 | 3865 ft | 212 kts | 288° |
| 2026-05-06 22:30 | 10.74828 | -63.29948 | 4426 ft | 220 kts | 262° |
| 2026-05-06 22:31 | 10.74346 | -63.31453 | 4831 ft | 234 kts | 238° |
| 2026-05-06 22:31 | 10.73461 | -63.32949 | 5118 ft | 260 kts | 236° |
| 2026-05-06 22:31 | 10.72494 | -63.34629 | 5367 ft | 282 kts | 238° |
| 2026-05-06 22:31 | 10.71501 | -63.36393 | 5790 ft | 294 kts | 238° |
| 2026-05-06 22:32 | 10.70499 | -63.38178 | 6684 ft | 293 kts | 238° |
| 2026-05-06 22:32 | 10.69496 | -63.39970 | 7519 ft | 294 kts | 238° |
| 2026-05-06 22:32 | 10.68482 | -63.41778 | 8259 ft | 297 kts | 238° |
| 2026-05-06 22:32 | 10.67454 | -63.43615 | 8970 ft | 302 kts | 238° |
| 2026-05-06 22:33 | 10.66607 | -63.45607 | 9631 ft | 309 kts | 256° |
| 2026-05-06 22:33 | 10.66292 | -63.47770 | 10302 ft | 314 kts | 264° |
| 2026-05-06 22:33 | 10.66093 | -63.50028 | 10680 ft | 329 kts | 266° |
| 2026-05-06 22:33 | 10.65956 | -63.52410 | 10975 ft | 347 kts | 267° |
| 2026-05-06 22:34 | 10.65818 | -63.54946 | 11262 ft | 364 kts | 267° |
| 2026-05-06 22:34 | 10.65677 | -63.57542 | 11597 ft | 377 kts | 267° |
| 2026-05-06 22:34 | 10.65529 | -63.60236 | 12148 ft | 382 kts | 268° |
| 2026-05-06 22:34 | 10.65377 | -63.62968 | 12765 ft | 385 kts | 268° |
| 2026-05-06 22:35 | 10.65226 | -63.65693 | 13361 ft | 389 kts | 268° |
| 2026-05-06 22:35 | 10.65076 | -63.68442 | 13950 ft | 392 kts | 268° |
| 2026-05-06 22:35 | 10.64927 | -63.71204 | 14591 ft | 392 kts | 268° |
| 2026-05-06 22:35 | 10.64775 | -63.73980 | 15262 ft | 392 kts | 268° |
| 2026-05-06 22:36 | 10.64623 | -63.76720 | 15940 ft | 392 kts | 267° |
| 2026-05-06 22:36 | 10.64468 | -63.79496 | 16587 ft | 392 kts | 267° |
| 2026-05-06 22:36 | 10.64311 | -63.82268 | 17225 ft | 392 kts | 266° |
| 2026-05-06 22:36 | 10.64065 | -63.85018 | 17859 ft | 392 kts | 264° |
| 2026-05-06 22:37 | 10.63782 | -63.87753 | 18486 ft | 391 kts | 264° |
| 2026-05-06 22:37 | 10.63494 | -63.90490 | 19011 ft | 393 kts | 264° |
| 2026-05-06 22:37 | 10.63201 | -63.93283 | 19522 ft | 395 kts | 264° |
| 2026-05-06 22:37 | 10.62910 | -63.96063 | 20000 ft | 397 kts | 264° |
| 2026-05-06 22:38 | 10.62618 | -63.98847 | 20459 ft | 400 kts | 264° |
| 2026-05-06 22:38 | 10.62325 | -64.01660 | 20909 ft | 402 kts | 264° |
| 2026-05-06 22:38 | 10.62030 | -64.04494 | 21342 ft | 404 kts | 264° |
| 2026-05-06 22:38 | 10.61732 | -64.07346 | 21763 ft | 406 kts | 264° |
| 2026-05-06 22:39 | 10.61434 | -64.10201 | 22171 ft | 408 kts | 264° |
| 2026-05-06 22:39 | 10.61135 | -64.13082 | 22594 ft | 410 kts | 264° |
| 2026-05-06 22:39 | 10.60834 | -64.15961 | 22998 ft | 413 kts | 264° |
| 2026-05-06 22:39 | 10.60531 | -64.18873 | 23409 ft | 415 kts | 264° |
| 2026-05-06 22:40 | 10.60224 | -64.21814 | 23813 ft | 416 kts | 264° |
| 2026-05-06 22:40 | 10.59916 | -64.24746 | 23957 ft | 417 kts | 264° |
| 2026-05-06 22:40 | 10.59610 | -64.27661 | 23958 ft | 416 kts | 264° |
| 2026-05-06 22:40 | 10.59302 | -64.30599 | 23959 ft | 416 kts | 264° |
| 2026-05-06 22:41 | 10.58689 | -64.36442 | 23960 ft | 416 kts | 264° |
| 2026-05-06 22:41 | 10.58382 | -64.39365 | 23957 ft | 416 kts | 264° |
| 2026-05-06 22:41 | 10.58076 | -64.42278 | 23957 ft | 416 kts | 264° |
| 2026-05-06 22:42 | 10.57769 | -64.45204 | 23958 ft | 417 kts | 264° |
| 2026-05-06 22:42 | 10.57458 | -64.48167 | 23954 ft | 417 kts | 264° |
| 2026-05-06 22:42 | 10.57152 | -64.51077 | 23951 ft | 417 kts | 264° |
| 2026-05-06 22:42 | 10.56841 | -64.54027 | 23949 ft | 417 kts | 264° |
| 2026-05-06 22:43 | 10.56534 | -64.56933 | 23949 ft | 417 kts | 264° |
| 2026-05-06 22:43 | 10.56240 | -64.59893 | 23949 ft | 417 kts | 265° |
| 2026-05-06 22:43 | 10.56075 | -64.62833 | 23949 ft | 417 kts | 268° |
| 2026-05-06 22:43 | 10.56055 | -64.65757 | 23951 ft | 417 kts | 270° |